sensor_id;sensor_type;location;lat;lon;timestamp;pressure;altitude;pressure_sealevel;temperature;humidity
64844;BME280;51310;52.198;5.422;2022-09-09T00:04:35;100515.16;;;14.28;100.00
64844;BME280;51310;52.198;5.422;2022-09-09T00:07:21;100503.53;;;14.23;100.00
64844;BME280;51310;52.198;5.422;2022-09-09T00:10:03;100508.72;;;14.23;100.00
64844;BME280;51310;52.198;5.422;2022-09-09T00:16:17;100497.47;;;14.22;100.00
64844;BME280;51310;52.198;5.422;2022-09-09T00:19:23;100491.13;;;14.19;100.00
64844;BME280;51310;52.198;5.422;2022-09-09T00:22:18;100500.38;;;14.15;100.00
64844;BME280;51310;52.198;5.422;2022-09-09T00:24:51;100487.53;;;14.16;100.00
64844;BME280;51310;52.198;5.422;2022-09-09T00:27:34;100493.16;;;14.11;100.00
64844;BME280;51310;52.198;5.422;2022-09-09T00:30:20;100491.69;;;14.14;100.00
64844;BME280;51310;52.198;5.422;2022-09-09T00:32:59;100492.34;;;14.12;100.00
64844;BME280;51310;52.198;5.422;2022-09-09T00:35:37;100483.56;;;14.10;100.00
64844;BME280;51310;52.198;5.422;2022-09-09T00:38:18;100483.56;;;14.10;100.00
64844;BME280;51310;52.198;5.422;2022-09-09T00:41:17;100492.81;;;14.06;100.00
64844;BME280;51310;52.198;5.422;2022-09-09T00:50:50;100481.63;;;13.95;100.00
64844;BME280;51310;52.198;5.422;2022-09-09T00:57:25;100504.91;;;13.95;100.00
64844;BME280;51310;52.198;5.422;2022-09-09T01:03:52;100501.59;;;13.86;100.00
64844;BME280;51310;52.198;5.422;2022-09-09T01:06:34;100507.44;;;13.84;100.00
64844;BME280;51310;52.198;5.422;2022-09-09T01:09:32;100501.84;;;13.89;100.00
64844;BME280;51310;52.198;5.422;2022-09-09T01:12:23;100504.84;;;13.84;100.00
64844;BME280;51310;52.198;5.422;2022-09-09T01:15:01;100513.50;;;13.84;100.00
64844;BME280;51310;52.198;5.422;2022-09-09T01:20:37;100505.28;;;13.78;100.00
64844;BME280;51310;52.198;5.422;2022-09-09T01:23:38;100499.50;;;13.70;100.00
64844;BME280;51310;52.198;5.422;2022-09-09T01:26:30;100494.63;;;13.63;100.00
64844;BME280;51310;52.198;5.422;2022-09-09T01:28:59;100490.91;;;13.60;100.00
64844;BME280;51310;52.198;5.422;2022-09-09T01:31:32;100484.22;;;13.51;100.00
64844;BME280;51310;52.198;5.422;2022-09-09T01:34:09;100478.28;;;13.52;100.00
64844;BME280;51310;52.198;5.422;2022-09-09T01:36:54;100479.97;;;13.52;100.00
64844;BME280;51310;52.198;5.422;2022-09-09T01:39:25;100478.94;;;13.50;100.00
64844;BME280;51310;52.198;5.422;2022-09-09T01:41:52;100480.69;;;13.39;100.00
64844;BME280;51310;52.198;5.422;2022-09-09T01:44:19;100480.09;;;13.43;100.00
64844;BME280;51310;52.198;5.422;2022-09-09T01:46:45;100491.78;;;13.38;100.00
64844;BME280;51310;52.198;5.422;2022-09-09T01:49:11;100484.44;;;13.32;100.00
64844;BME280;51310;52.198;5.422;2022-09-09T01:51:40;100485.59;;;13.26;100.00
64844;BME280;51310;52.198;5.422;2022-09-09T01:54:07;100490.28;;;13.20;100.00
64844;BME280;51310;52.198;5.422;2022-09-09T01:56:46;100484.31;;;13.21;100.00
64844;BME280;51310;52.198;5.422;2022-09-09T01:59:46;100485.66;;;13.16;100.00
64844;BME280;51310;52.198;5.422;2022-09-09T02:02:36;100480.22;;;13.12;100.00
64844;BME280;51310;52.198;5.422;2022-09-09T02:05:37;100474.53;;;13.17;100.00
64844;BME280;51310;52.198;5.422;2022-09-09T02:08:18;100470.69;;;13.11;100.00
64844;BME280;51310;52.198;5.422;2022-09-09T02:11:16;100473.13;;;13.10;100.00
64844;BME280;51310;52.198;5.422;2022-09-09T02:13:51;100471.22;;;13.07;100.00
64844;BME280;51310;52.198;5.422;2022-09-09T02:16:26;100466.19;;;13.09;100.00
64844;BME280;51310;52.198;5.422;2022-09-09T02:19:19;100466.03;;;13.07;100.00
64844;BME280;51310;52.198;5.422;2022-09-09T02:21:55;100462.84;;;13.32;100.00
64844;BME280;51310;52.198;5.422;2022-09-09T02:24:23;100455.28;;;13.45;100.00
64844;BME280;51310;52.198;5.422;2022-09-09T02:26:54;100462.13;;;13.67;100.00
64844;BME280;51310;52.198;5.422;2022-09-09T02:29:31;100465.09;;;13.71;100.00
64844;BME280;51310;52.198;5.422;2022-09-09T02:32:05;100463.47;;;13.62;100.00
64844;BME280;51310;52.198;5.422;2022-09-09T02:34:40;100458.13;;;13.48;100.00
64844;BME280;51310;52.198;5.422;2022-09-09T02:37:10;100459.19;;;13.40;100.00
64844;BME280;51310;52.198;5.422;2022-09-09T02:39:37;100455.59;;;13.38;100.00
64844;BME280;51310;52.198;5.422;2022-09-09T02:42:04;100463.16;;;13.47;100.00
64844;BME280;51310;52.198;5.422;2022-09-09T02:44:30;100460.88;;;13.40;100.00
64844;BME280;51310;52.198;5.422;2022-09-09T02:50:43;100456.31;;;13.15;100.00
64844;BME280;51310;52.198;5.422;2022-09-09T02:53:32;100457.66;;;13.00;100.00
64844;BME280;51310;52.198;5.422;2022-09-09T02:56:21;100457.78;;;13.01;100.00
64844;BME280;51310;52.198;5.422;2022-09-09T02:58:52;100463.47;;;12.97;100.00
64844;BME280;51310;52.198;5.422;2022-09-09T03:01:18;100458.69;;;13.02;100.00
64844;BME280;51310;52.198;5.422;2022-09-09T03:03:44;100454.84;;;12.97;100.00
64844;BME280;51310;52.198;5.422;2022-09-09T03:06:11;100456.53;;;12.96;100.00
64844;BME280;51310;52.198;5.422;2022-09-09T03:08:38;100459.63;;;12.92;100.00
64844;BME280;51310;52.198;5.422;2022-09-09T03:11:04;100452.81;;;12.82;100.00
64844;BME280;51310;52.198;5.422;2022-09-09T03:13:30;100453.59;;;12.81;100.00
64844;BME280;51310;52.198;5.422;2022-09-09T03:15:56;100447.66;;;12.82;100.00
64844;BME280;51310;52.198;5.422;2022-09-09T03:18:21;100450.25;;;12.72;100.00
64844;BME280;51310;52.198;5.422;2022-09-09T03:20:48;100452.72;;;12.70;100.00
64844;BME280;51310;52.198;5.422;2022-09-09T03:23:14;100459.44;;;12.79;100.00
64844;BME280;51310;52.198;5.422;2022-09-09T03:25:47;100457.09;;;12.71;100.00
64844;BME280;51310;52.198;5.422;2022-09-09T03:28:14;100459.31;;;12.67;100.00
64844;BME280;51310;52.198;5.422;2022-09-09T03:30:40;100458.66;;;12.69;100.00
64844;BME280;51310;52.198;5.422;2022-09-09T03:33:06;100457.22;;;12.73;100.00
64844;BME280;51310;52.198;5.422;2022-09-09T03:35:32;100454.66;;;12.63;100.00
64844;BME280;51310;52.198;5.422;2022-09-09T03:37:58;100451.84;;;12.60;100.00
64844;BME280;51310;52.198;5.422;2022-09-09T03:40:26;100457.78;;;12.59;100.00
64844;BME280;51310;52.198;5.422;2022-09-09T03:42:52;100447.88;;;12.53;100.00
64844;BME280;51310;52.198;5.422;2022-09-09T03:45:18;100446.16;;;12.64;100.00
64844;BME280;51310;52.198;5.422;2022-09-09T03:47:44;100441.66;;;12.61;100.00
64844;BME280;51310;52.198;5.422;2022-09-09T03:50:10;100445.81;;;12.49;100.00
64844;BME280;51310;52.198;5.422;2022-09-09T03:52:38;100445.00;;;12.50;100.00
64844;BME280;51310;52.198;5.422;2022-09-09T03:55:07;100443.97;;;12.48;100.00
64844;BME280;51310;52.198;5.422;2022-09-09T03:57:33;100441.53;;;12.49;100.00
64844;BME280;51310;52.198;5.422;2022-09-09T04:00:06;100437.25;;;12.50;100.00
64844;BME280;51310;52.198;5.422;2022-09-09T04:02:33;100436.75;;;12.44;100.00
64844;BME280;51310;52.198;5.422;2022-09-09T04:04:59;100448.09;;;12.46;100.00
64844;BME280;51310;52.198;5.422;2022-09-09T04:07:26;100445.00;;;12.50;100.00
64844;BME280;51310;52.198;5.422;2022-09-09T04:09:53;100447.22;;;12.45;100.00
64844;BME280;51310;52.198;5.422;2022-09-09T04:12:20;100436.13;;;12.36;100.00
64844;BME280;51310;52.198;5.422;2022-09-09T04:14:46;100438.84;;;12.38;100.00
64844;BME280;51310;52.198;5.422;2022-09-09T04:17:12;100446.69;;;12.39;100.00
64844;BME280;51310;52.198;5.422;2022-09-09T04:19:38;100434.31;;;12.35;100.00
64844;BME280;51310;52.198;5.422;2022-09-09T04:22:04;100437.03;;;12.37;100.00
64844;BME280;51310;52.198;5.422;2022-09-09T04:24:30;100437.69;;;12.34;100.00
64844;BME280;51310;52.198;5.422;2022-09-09T04:26:55;100433.84;;;12.29;100.00
64844;BME280;51310;52.198;5.422;2022-09-09T04:29:21;100433.84;;;12.29;100.00
64844;BME280;51310;52.198;5.422;2022-09-09T04:31:47;100430.47;;;12.30;100.00
64844;BME280;51310;52.198;5.422;2022-09-09T04:34:13;100424.13;;;12.26;100.00
64844;BME280;51310;52.198;5.422;2022-09-09T04:36:39;100431.63;;;12.34;100.00
64844;BME280;51310;52.198;5.422;2022-09-09T04:39:06;100426.72;;;12.26;100.00
64844;BME280;51310;52.198;5.422;2022-09-09T04:41:32;100435.50;;;12.39;100.00
64844;BME280;51310;52.198;5.422;2022-09-09T04:43:59;100429.56;;;12.40;100.00
64844;BME280;51310;52.198;5.422;2022-09-09T04:46:26;100435.19;;;12.46;100.00
64844;BME280;51310;52.198;5.422;2022-09-09T04:48:52;100421.41;;;12.56;100.00
64844;BME280;51310;52.198;5.422;2022-09-09T04:51:19;100428.09;;;12.54;100.00
64844;BME280;51310;52.198;5.422;2022-09-09T04:53:45;100416.97;;;12.65;100.00
64844;BME280;51310;52.198;5.422;2022-09-09T04:56:15;100421.00;;;12.61;100.00
64844;BME280;51310;52.198;5.422;2022-09-09T04:58:42;100421.09;;;12.63;100.00
64844;BME280;51310;52.198;5.422;2022-09-09T05:01:11;100416.09;;;12.54;100.00
64844;BME280;51310;52.198;5.422;2022-09-09T05:03:38;100417.28;;;12.47;100.00
64844;BME280;51310;52.198;5.422;2022-09-09T05:06:11;100418.69;;;12.54;100.00
64844;BME280;51310;52.198;5.422;2022-09-09T05:08:43;100416.09;;;12.44;100.00
64844;BME280;51310;52.198;5.422;2022-09-09T05:13:52;100417.56;;;12.40;100.00
64844;BME280;51310;52.198;5.422;2022-09-09T05:16:19;100423.34;;;12.48;100.00
64844;BME280;51310;52.198;5.422;2022-09-09T05:18:46;100419.34;;;12.51;100.00
64844;BME280;51310;52.198;5.422;2022-09-09T05:21:15;100421.69;;;12.48;100.00
64844;BME280;51310;52.198;5.422;2022-09-09T05:23:42;100422.44;;;12.47;100.00
64844;BME280;51310;52.198;5.422;2022-09-09T05:26:13;100406.94;;;12.47;100.00
64844;BME280;51310;52.198;5.422;2022-09-09T05:28:40;100411.09;;;12.45;100.00
64844;BME280;51310;52.198;5.422;2022-09-09T05:31:09;100408.88;;;12.50;100.00
64844;BME280;51310;52.198;5.422;2022-09-09T05:33:38;100406.28;;;12.60;100.00
64844;BME280;51310;52.198;5.422;2022-09-09T05:36:18;100401.75;;;12.58;100.00
64844;BME280;51310;52.198;5.422;2022-09-09T05:38:46;100398.00;;;12.64;100.00
64844;BME280;51310;52.198;5.422;2022-09-09T05:41:13;100406.47;;;12.73;100.00
64844;BME280;51310;52.198;5.422;2022-09-09T05:43:44;100412.06;;;12.68;100.00
64844;BME280;51310;52.198;5.422;2022-09-09T05:46:18;100412.59;;;12.64;100.00
64844;BME280;51310;52.198;5.422;2022-09-09T05:48:47;100420.00;;;12.91;100.00
64844;BME280;51310;52.198;5.422;2022-09-09T05:51:22;100416.50;;;12.91;100.00
64844;BME280;51310;52.198;5.422;2022-09-09T05:53:53;100412.53;;;12.74;100.00
64844;BME280;51310;52.198;5.422;2022-09-09T05:56:28;100413.56;;;12.76;100.00
64844;BME280;51310;52.198;5.422;2022-09-09T05:58:55;100410.38;;;12.79;100.00
64844;BME280;51310;52.198;5.422;2022-09-09T06:01:28;100409.69;;;12.81;100.00
64844;BME280;51310;52.198;5.422;2022-09-09T06:03:56;100410.72;;;12.83;100.00
64844;BME280;51310;52.198;5.422;2022-09-09T06:06:31;100419.72;;;12.88;100.00
64844;BME280;51310;52.198;5.422;2022-09-09T06:09:04;100423.56;;;12.93;100.00
64844;BME280;51310;52.198;5.422;2022-09-09T06:11:33;100424.56;;;13.06;100.00
64844;BME280;51310;52.198;5.422;2022-09-09T06:14:00;100425.09;;;13.02;100.00
64844;BME280;51310;52.198;5.422;2022-09-09T06:16:28;100424.13;;;13.22;100.00
64844;BME280;51310;52.198;5.422;2022-09-09T06:18:56;100419.06;;;13.23;100.00
64844;BME280;51310;52.198;5.422;2022-09-09T06:21:28;100420.38;;;13.28;100.00
64844;BME280;51310;52.198;5.422;2022-09-09T06:23:56;100422.28;;;13.31;100.00
64844;BME280;51310;52.198;5.422;2022-09-09T06:26:29;100418.38;;;13.36;100.00
64844;BME280;51310;52.198;5.422;2022-09-09T06:28:58;100423.69;;;13.38;100.00
64844;BME280;51310;52.198;5.422;2022-09-09T06:31:27;100420.56;;;13.42;100.00
64844;BME280;51310;52.198;5.422;2022-09-09T06:33:58;100412.75;;;13.52;100.00
64844;BME280;51310;52.198;5.422;2022-09-09T06:36:28;100402.22;;;13.61;100.00
64844;BME280;51310;52.198;5.422;2022-09-09T06:38:55;100405.69;;;13.61;100.00
64844;BME280;51310;52.198;5.422;2022-09-09T06:41:24;100403.25;;;13.74;100.00
64844;BME280;51310;52.198;5.422;2022-09-09T06:43:52;100400.41;;;13.93;100.00
64844;BME280;51310;52.198;5.422;2022-09-09T06:46:25;100403.25;;;14.08;100.00
64844;BME280;51310;52.198;5.422;2022-09-09T06:48:54;100401.91;;;14.25;100.00
64844;BME280;51310;52.198;5.422;2022-09-09T06:51:23;100405.06;;;14.45;100.00
64844;BME280;51310;52.198;5.422;2022-09-09T06:53:56;100403.19;;;14.66;100.00
64844;BME280;51310;52.198;5.422;2022-09-09T06:56:30;100398.16;;;14.67;100.00
64844;BME280;51310;52.198;5.422;2022-09-09T06:59:09;100404.09;;;14.78;100.00
64844;BME280;51310;52.198;5.422;2022-09-09T07:01:42;100400.06;;;14.82;100.00
64844;BME280;51310;52.198;5.422;2022-09-09T07:04:10;100405.09;;;14.92;100.00
64844;BME280;51310;52.198;5.422;2022-09-09T07:06:44;100400.00;;;15.05;100.00
64844;BME280;51310;52.198;5.422;2022-09-09T07:09:13;100405.81;;;15.26;100.00
64844;BME280;51310;52.198;5.422;2022-09-09T07:11:44;100402.97;;;15.35;100.00
64844;BME280;51310;52.198;5.422;2022-09-09T07:14:12;100407.38;;;15.36;100.00
64844;BME280;51310;52.198;5.422;2022-09-09T07:16:43;100407.59;;;15.39;100.00
64844;BME280;51310;52.198;5.422;2022-09-09T07:19:11;100409.59;;;15.43;100.00
64844;BME280;51310;52.198;5.422;2022-09-09T07:21:38;100409.34;;;15.52;100.00
64844;BME280;51310;52.198;5.422;2022-09-09T07:24:05;100411.78;;;15.62;100.00
64844;BME280;51310;52.198;5.422;2022-09-09T07:26:36;100404.69;;;15.59;100.00
64844;BME280;51310;52.198;5.422;2022-09-09T07:29:03;100402.03;;;15.46;100.00
64844;BME280;51310;52.198;5.422;2022-09-09T07:31:36;100401.50;;;15.38;100.00
64844;BME280;51310;52.198;5.422;2022-09-09T07:34:04;100403.97;;;15.37;100.00
64844;BME280;51310;52.198;5.422;2022-09-09T07:36:34;100408.00;;;15.45;100.00
64844;BME280;51310;52.198;5.422;2022-09-09T07:39:05;100416.34;;;15.53;100.00
64844;BME280;51310;52.198;5.422;2022-09-09T07:41:39;100420.28;;;15.48;100.00
64844;BME280;51310;52.198;5.422;2022-09-09T07:44:20;100417.25;;;15.42;100.00
64844;BME280;51310;52.198;5.422;2022-09-09T07:46:48;100418.81;;;15.51;100.00
64844;BME280;51310;52.198;5.422;2022-09-09T07:49:14;100421.34;;;15.75;100.00
64844;BME280;51310;52.198;5.422;2022-09-09T07:51:43;100413.78;;;15.78;100.00
64844;BME280;51310;52.198;5.422;2022-09-09T07:54:14;100411.94;;;16.02;100.00
64844;BME280;51310;52.198;5.422;2022-09-09T07:56:42;100405.66;;;15.98;100.00
64844;BME280;51310;52.198;5.422;2022-09-09T07:59:08;100405.84;;;16.27;100.00
64844;BME280;51310;52.198;5.422;2022-09-09T08:01:41;100407.91;;;16.46;100.00
64844;BME280;51310;52.198;5.422;2022-09-09T08:04:17;100410.63;;;16.60;100.00
64844;BME280;51310;52.198;5.422;2022-09-09T08:06:49;100414.88;;;16.85;100.00
64844;BME280;51310;52.198;5.422;2022-09-09T08:09:18;100414.34;;;16.91;100.00
64844;BME280;51310;52.198;5.422;2022-09-09T08:11:45;100416.19;;;16.92;100.00
64844;BME280;51310;52.198;5.422;2022-09-09T08:14:12;100423.56;;;16.99;100.00
64844;BME280;51310;52.198;5.422;2022-09-09T08:16:43;100426.38;;;17.02;100.00
64844;BME280;51310;52.198;5.422;2022-09-09T08:19:11;100422.09;;;16.89;100.00
64844;BME280;51310;52.198;5.422;2022-09-09T08:21:40;100422.47;;;16.95;100.00
64844;BME280;51310;52.198;5.422;2022-09-09T08:24:08;100427.97;;;17.00;100.00
64844;BME280;51310;52.198;5.422;2022-09-09T08:26:42;100428.16;;;16.90;100.00
64844;BME280;51310;52.198;5.422;2022-09-09T08:29:12;100428.63;;;16.71;100.00
64844;BME280;51310;52.198;5.422;2022-09-09T08:31:51;100432.94;;;16.57;100.00
64844;BME280;51310;52.198;5.422;2022-09-09T08:34:20;100429.81;;;16.49;100.00
64844;BME280;51310;52.198;5.422;2022-09-09T08:36:48;100434.72;;;16.45;100.00
64844;BME280;51310;52.198;5.422;2022-09-09T08:39:18;100439.31;;;16.49;100.00
64844;BME280;51310;52.198;5.422;2022-09-09T08:44:41;100437.59;;;16.36;100.00
64844;BME280;51310;52.198;5.422;2022-09-09T08:50:25;100441.50;;;16.43;100.00
64844;BME280;51310;52.198;5.422;2022-09-09T08:53:04;100445.72;;;16.54;100.00
64844;BME280;51310;52.198;5.422;2022-09-09T08:55:58;100452.13;;;16.72;100.00
64844;BME280;51310;52.198;5.422;2022-09-09T08:58:34;100443.81;;;16.65;100.00
64844;BME280;51310;52.198;5.422;2022-09-09T09:04:41;100451.91;;;16.69;100.00
64844;BME280;51310;52.198;5.422;2022-09-09T09:12:56;100447.69;;;16.83;100.00
64844;BME280;51310;52.198;5.422;2022-09-09T09:15:36;100463.28;;;16.83;100.00
64844;BME280;51310;52.198;5.422;2022-09-09T09:18:04;100453.31;;;16.77;100.00
64844;BME280;51310;52.198;5.422;2022-09-09T09:22:04;100457.63;;;16.77;100.00
64844;BME280;51310;52.198;5.422;2022-09-09T09:24:20;100461.94;;;16.76;100.00
64844;BME280;51310;52.198;5.422;2022-09-09T09:26:51;100463.41;;;16.73;100.00
64844;BME280;51310;52.198;5.422;2022-09-09T09:29:20;100460.69;;;16.58;100.00
64844;BME280;51310;52.198;5.422;2022-09-09T09:31:56;100462.81;;;16.50;100.00
64844;BME280;51310;52.198;5.422;2022-09-09T09:34:27;100460.28;;;16.52;100.00
64844;BME280;51310;52.198;5.422;2022-09-09T09:36:57;100460.09;;;16.35;100.00
64844;BME280;51310;52.198;5.422;2022-09-09T09:39:30;100463.75;;;16.39;100.00
64844;BME280;51310;52.198;5.422;2022-09-09T09:42:11;100457.25;;;16.32;100.00
64844;BME280;51310;52.198;5.422;2022-09-09T09:44:41;100459.38;;;16.38;100.00
64844;BME280;51310;52.198;5.422;2022-09-09T09:47:20;100456.78;;;16.38;100.00
64844;BME280;51310;52.198;5.422;2022-09-09T09:49:59;100457.97;;;16.43;100.00
64844;BME280;51310;52.198;5.422;2022-09-09T09:52:31;100454.91;;;16.49;100.00
64844;BME280;51310;52.198;5.422;2022-09-09T09:55:04;100458.22;;;16.59;100.00
64844;BME280;51310;52.198;5.422;2022-09-09T09:57:33;100456.03;;;16.66;100.00
64844;BME280;51310;52.198;5.422;2022-09-09T10:00:21;100456.50;;;16.73;100.00
64844;BME280;51310;52.198;5.422;2022-09-09T10:02:49;100455.25;;;16.80;100.00
64844;BME280;51310;52.198;5.422;2022-09-09T10:05:27;100453.88;;;16.98;100.00
64844;BME280;51310;52.198;5.422;2022-09-09T10:17:10;100451.84;;;17.08;100.00
64844;BME280;51310;52.198;5.422;2022-09-09T10:22:37;100456.34;;;17.24;98.39
64844;BME280;51310;52.198;5.422;2022-09-09T10:25:38;100454.63;;;17.24;98.43
64844;BME280;51310;52.198;5.422;2022-09-09T10:28:51;100458.63;;;17.19;97.97
64844;BME280;51310;52.198;5.422;2022-09-09T10:34:52;100461.06;;;17.02;98.48
64844;BME280;51310;52.198;5.422;2022-09-09T10:43:52;100464.44;;;17.01;100.00
64844;BME280;51310;52.198;5.422;2022-09-09T10:46:45;100462.13;;;17.06;100.00
64844;BME280;51310;52.198;5.422;2022-09-09T10:53:36;100454.84;;;17.14;100.00
64844;BME280;51310;52.198;5.422;2022-09-09T10:56:32;100457.25;;;17.11;100.00
64844;BME280;51310;52.198;5.422;2022-09-09T10:59:12;100459.88;;;17.11;100.00
64844;BME280;51310;52.198;5.422;2022-09-09T11:02:00;100461.06;;;17.02;100.00
64844;BME280;51310;52.198;5.422;2022-09-09T11:04:48;100466.25;;;17.02;100.00
64844;BME280;51310;52.198;5.422;2022-09-09T11:07:46;100459.78;;;16.96;100.00
64844;BME280;51310;52.198;5.422;2022-09-09T11:10:45;100455.56;;;16.98;100.00
64844;BME280;51310;52.198;5.422;2022-09-09T11:19:34;100455.06;;;17.58;100.00
64844;BME280;51310;52.198;5.422;2022-09-09T11:22:32;100445.38;;;17.71;100.00
64844;BME280;51310;52.198;5.422;2022-09-09T11:25:21;100438.94;;;17.79;100.00
64844;BME280;51310;52.198;5.422;2022-09-09T11:42:19;100431.72;;;17.60;100.00
64844;BME280;51310;52.198;5.422;2022-09-09T11:44:48;100425.44;;;17.56;100.00
64844;BME280;51310;52.198;5.422;2022-09-09T11:47:29;100426.94;;;17.53;100.00
64844;BME280;51310;52.198;5.422;2022-09-09T11:52:46;100433.47;;;17.74;99.88
64844;BME280;51310;52.198;5.422;2022-09-09T11:55:34;100428.44;;;17.77;98.71
64844;BME280;51310;52.198;5.422;2022-09-09T11:58:03;100430.41;;;17.81;98.17
64844;BME280;51310;52.198;5.422;2022-09-09T12:00:37;100428.44;;;17.91;97.89
64844;BME280;51310;52.198;5.422;2022-09-09T12:03:46;100430.13;;;17.90;98.77
64844;BME280;51310;52.198;5.422;2022-09-09T12:06:20;100431.31;;;17.67;100.00
64844;BME280;51310;52.198;5.422;2022-09-09T12:08:57;100424.94;;;17.49;100.00
64844;BME280;51310;52.198;5.422;2022-09-09T12:11:34;100432.59;;;17.46;100.00
64844;BME280;51310;52.198;5.422;2022-09-09T12:14:00;100431.53;;;17.57;100.00
64844;BME280;51310;52.198;5.422;2022-09-09T12:16:32;100434.53;;;17.63;100.00
64844;BME280;51310;52.198;5.422;2022-09-09T12:19:26;100428.25;;;17.74;100.00
64844;BME280;51310;52.198;5.422;2022-09-09T12:22:06;100431.38;;;17.97;100.00
64844;BME280;51310;52.198;5.422;2022-09-09T12:24:51;100424.13;;;17.91;100.00
64844;BME280;51310;52.198;5.422;2022-09-09T12:27:28;100428.59;;;17.94;100.00
64844;BME280;51310;52.198;5.422;2022-09-09T12:30:07;100433.19;;;17.70;100.00
64844;BME280;51310;52.198;5.422;2022-09-09T12:32:36;100434.97;;;17.42;100.00
64844;BME280;51310;52.198;5.422;2022-09-09T12:35:20;100439.94;;;17.25;100.00
64844;BME280;51310;52.198;5.422;2022-09-09T12:37:58;100436.44;;;16.97;100.00
64844;BME280;51310;52.198;5.422;2022-09-09T12:40:30;100436.38;;;16.96;100.00
64844;BME280;51310;52.198;5.422;2022-09-09T12:43:02;100439.97;;;16.98;100.00
64844;BME280;51310;52.198;5.422;2022-09-09T12:45:41;100435.00;;;17.29;100.00
64844;BME280;51310;52.198;5.422;2022-09-09T12:48:10;100424.38;;;17.39;100.00
64844;BME280;51310;52.198;5.422;2022-09-09T12:50:50;100419.19;;;17.68;100.00
64844;BME280;51310;52.198;5.422;2022-09-09T12:53:34;100417.13;;;18.05;100.00
64844;BME280;51310;52.198;5.422;2022-09-09T12:56:05;100419.56;;;18.02;100.00
64844;BME280;51310;52.198;5.422;2022-09-09T12:58:36;100413.34;;;17.85;100.00
64844;BME280;51310;52.198;5.422;2022-09-09T13:01:05;100403.94;;;17.74;100.00
64844;BME280;51310;52.198;5.422;2022-09-09T13:03:33;100419.56;;;17.74;100.00
64844;BME280;51310;52.198;5.422;2022-09-09T13:06:19;100413.81;;;17.79;100.00
64844;BME280;51310;52.198;5.422;2022-09-09T13:08:52;100418.72;;;18.03;100.00
64844;BME280;51310;52.198;5.422;2022-09-09T13:11:40;100417.78;;;18.45;100.00
64844;BME280;51310;52.198;5.422;2022-09-09T13:14:18;100422.59;;;18.69;100.00
64844;BME280;51310;52.198;5.422;2022-09-09T13:17:01;100421.00;;;18.56;99.11
64844;BME280;51310;52.198;5.422;2022-09-09T13:19:35;100417.28;;;18.68;99.35
64844;BME280;51310;52.198;5.422;2022-09-09T13:22:35;100419.47;;;18.75;98.74
64844;BME280;51310;52.198;5.422;2022-09-09T13:27:41;100420.56;;;18.78;97.09
64844;BME280;51310;52.198;5.422;2022-09-09T13:30:25;100417.84;;;18.77;95.58
64844;BME280;51310;52.198;5.422;2022-09-09T13:33:22;100421.81;;;18.55;96.01
64844;BME280;51310;52.198;5.422;2022-09-09T13:35:56;100420.34;;;18.75;95.32
64844;BME280;51310;52.198;5.422;2022-09-09T13:38:25;100421.63;;;18.82;96.87
64844;BME280;51310;52.198;5.422;2022-09-09T13:40:56;100415.06;;;18.59;94.61
64844;BME280;51310;52.198;5.422;2022-09-09T13:43:45;100412.19;;;18.39;96.11
64844;BME280;51310;52.198;5.422;2022-09-09T13:46:39;100421.63;;;18.22;97.05
64844;BME280;51310;52.198;5.422;2022-09-09T13:51:37;100413.44;;;17.87;100.00
64844;BME280;51310;52.198;5.422;2022-09-09T13:54:05;100409.44;;;17.78;100.00
64844;BME280;51310;52.198;5.422;2022-09-09T13:56:34;100405.66;;;17.73;100.00
64844;BME280;51310;52.198;5.422;2022-09-09T13:59:01;100410.63;;;17.83;100.00
64844;BME280;51310;52.198;5.422;2022-09-09T14:01:28;100416.75;;;17.84;100.00
64844;BME280;51310;52.198;5.422;2022-09-09T14:03:54;100417.91;;;17.89;100.00
64844;BME280;51310;52.198;5.422;2022-09-09T14:06:21;100416.59;;;17.96;100.00
64844;BME280;51310;52.198;5.422;2022-09-09T14:08:49;100409.38;;;17.92;100.00
64844;BME280;51310;52.198;5.422;2022-09-09T14:11:16;100415.16;;;17.73;100.00
64844;BME280;51310;52.198;5.422;2022-09-09T14:13:44;100412.09;;;17.65;100.00
64844;BME280;51310;52.198;5.422;2022-09-09T14:16:10;100413.03;;;17.52;100.00
64844;BME280;51310;52.198;5.422;2022-09-09T14:18:36;100411.53;;;17.56;100.00
64844;BME280;51310;52.198;5.422;2022-09-09T14:21:03;100408.59;;;17.65;100.00
64844;BME280;51310;52.198;5.422;2022-09-09T14:23:29;100411.09;;;17.63;100.00
64844;BME280;51310;52.198;5.422;2022-09-09T14:25:56;100408.63;;;17.51;100.00
64844;BME280;51310;52.198;5.422;2022-09-09T14:28:22;100410.38;;;17.66;100.00
64844;BME280;51310;52.198;5.422;2022-09-09T14:30:48;100403.28;;;17.63;100.00
64844;BME280;51310;52.198;5.422;2022-09-09T14:33:15;100401.72;;;17.80;100.00
64844;BME280;51310;52.198;5.422;2022-09-09T14:35:42;100400.78;;;17.79;100.00
64844;BME280;51310;52.198;5.422;2022-09-09T14:38:10;100406.72;;;17.77;100.00
64844;BME280;51310;52.198;5.422;2022-09-09T14:40:38;100410.09;;;17.61;100.00
64844;BME280;51310;52.198;5.422;2022-09-09T14:43:05;100410.38;;;17.66;100.00
64844;BME280;51310;52.198;5.422;2022-09-09T14:45:32;100404.19;;;17.63;100.00
64844;BME280;51310;52.198;5.422;2022-09-09T14:47:57;100406.34;;;17.56;100.00
64844;BME280;51310;52.198;5.422;2022-09-09T14:50:24;100412.38;;;17.70;100.00
64844;BME280;51310;52.198;5.422;2022-09-09T14:52:50;100403.66;;;17.69;100.00
64844;BME280;51310;52.198;5.422;2022-09-09T14:55:17;100406.41;;;17.57;100.00